createdAt,value
2022-10-05T00:00:00.315Z,8.92
2022-10-05T00:01:05.833Z,8.82
2022-10-05T00:02:24.760Z,8.78
2022-10-05T00:03:36.957Z,8.74
2022-10-05T00:04:38.577Z,8.68
2022-10-05T00:05:40.665Z,8.64
2022-10-05T00:06:44.760Z,8.64
2022-10-05T00:07:46.560Z,8.72
2022-10-05T00:08:48.317Z,8.78
2022-10-05T00:09:56.336Z,8.86
2022-10-05T00:10:57.887Z,8.85
2022-10-05T00:11:59.743Z,8.87
2022-10-05T00:13:01.311Z,8.86
2022-10-05T00:14:14.689Z,8.88
2022-10-05T00:15:20.686Z,9.02
2022-10-05T00:16:22.328Z,9.10
2022-10-05T00:17:27.303Z,9.24
2022-10-05T00:18:28.914Z,9.28
2022-10-05T00:19:38.652Z,9.28
2022-10-05T00:20:41.539Z,9.37
2022-10-05T00:21:43.061Z,9.48
2022-10-05T00:22:44.665Z,9.58
2022-10-05T00:23:46.760Z,9.70
2022-10-05T00:24:50.451Z,9.81
2022-10-05T00:25:52.114Z,9.91
2022-10-05T00:26:57.779Z,10.00
2022-10-05T00:28:01.332Z,10.09
2022-10-05T00:29:18.737Z,10.20
2022-10-05T00:30:21.653Z,10.29
2022-10-05T00:31:26.826Z,10.36
2022-10-05T00:32:28.377Z,10.41
2022-10-05T00:33:29.872Z,10.45
2022-10-05T00:34:34.142Z,10.49
2022-10-05T00:35:36.700Z,10.51
2022-10-05T00:36:39.665Z,10.51
2022-10-05T00:37:42.025Z,10.56
2022-10-05T00:38:44.916Z,10.60
2022-10-05T00:39:46.945Z,10.65
2022-10-05T00:41:10.467Z,10.67
2022-10-05T00:42:46.083Z,10.67
2022-10-05T00:44:10.579Z,10.80
2022-10-05T00:45:27.399Z,10.84
2022-10-05T00:46:43.686Z,10.90
2022-10-05T00:47:45.443Z,10.86
2022-10-05T00:48:53.022Z,10.75
2022-10-05T00:50:18.220Z,10.67
2022-10-05T00:51:28.507Z,10.63
2022-10-05T00:52:41.097Z,10.67
2022-10-05T00:53:43.387Z,10.67
2022-10-05T00:54:49.353Z,10.69
2022-10-05T00:56:07.607Z,10.72
2022-10-05T00:57:34.069Z,10.69
2022-10-05T00:58:44.719Z,10.53
2022-10-05T00:59:57.461Z,10.52
2022-10-05T01:01:17.909Z,10.54
2022-10-05T01:04:04.224Z,10.55
2022-10-05T01:05:11.862Z,10.50
2022-10-05T01:06:29.867Z,10.38
2022-10-05T01:07:46.213Z,10.22
2022-10-05T01:09:09.949Z,10.08
2022-10-05T01:10:35.537Z,10.02
2022-10-05T01:11:54.751Z,10.04
2022-10-05T01:13:34.690Z,10.07
2022-10-05T01:15:02.101Z,10.12
2022-10-05T01:16:21.102Z,10.14
2022-10-05T01:17:41.882Z,10.17
2022-10-05T01:19:35.846Z,10.22
2022-10-05T01:21:02.035Z,10.25
2022-10-05T01:22:15.393Z,10.28
2022-10-05T01:23:47.914Z,10.28
2022-10-05T01:25:05.394Z,10.26
2022-10-05T01:26:31.390Z,10.22
2022-10-05T01:27:45.429Z,10.28
2022-10-05T01:28:59.842Z,10.30
2022-10-05T01:30:07.265Z,10.34
2022-10-05T01:31:32.307Z,10.31
2022-10-05T01:32:41.742Z,10.23
2022-10-05T01:34:11.562Z,10.21
2022-10-05T01:35:16.058Z,10.23
2022-10-05T01:36:24.044Z,10.22
2022-10-05T01:37:34.461Z,10.12
2022-10-05T01:38:41.683Z,10.10
2022-10-05T01:39:58.322Z,10.12
2022-10-05T01:41:05.952Z,10.13
2022-10-05T01:42:21.271Z,10.19
2022-10-05T01:43:28.595Z,10.19
2022-10-05T01:44:40.230Z,10.20
2022-10-05T01:45:50.815Z,10.14
2022-10-05T01:47:18.425Z,10.16
2022-10-05T01:48:37.562Z,10.17
2022-10-05T01:50:02.945Z,10.16
2022-10-05T01:51:37.965Z,10.25
2022-10-05T01:53:00.563Z,10.32
2022-10-05T01:54:25.235Z,10.37
2022-10-05T01:55:51.321Z,10.40
2022-10-05T01:57:20.759Z,10.45
2022-10-05T01:58:48.279Z,10.47
2022-10-05T02:00:04.059Z,10.49
2022-10-05T02:01:33.616Z,10.25
2022-10-05T02:02:39.806Z,10.18
2022-10-05T02:04:04.864Z,10.07
2022-10-05T02:05:32.511Z,10.14
2022-10-05T02:06:41.366Z,10.09
2022-10-05T02:07:51.254Z,10.11
2022-10-05T02:09:00.918Z,10.18
2022-10-05T02:10:20.241Z,10.21
2022-10-05T02:11:21.908Z,10.24
2022-10-05T02:12:27.262Z,10.18
2022-10-05T02:13:44.180Z,10.14
2022-10-05T02:14:54.228Z,10.04
2022-10-05T02:16:07.279Z,10.00
2022-10-05T02:17:19.298Z,9.90
2022-10-05T02:18:30.524Z,9.80
2022-10-05T02:19:38.242Z,9.67
2022-10-05T02:20:42.392Z,9.57
2022-10-05T02:21:48.968Z,9.53
2022-10-05T02:22:54.320Z,9.47
2022-10-05T02:24:00.928Z,9.44
2022-10-05T02:25:12.758Z,9.47
2022-10-05T02:26:16.716Z,9.46
2022-10-05T02:27:26.009Z,9.50
2022-10-05T02:28:39.429Z,9.56
2022-10-05T02:29:45.608Z,9.60
2022-10-05T02:31:10.461Z,9.57
2022-10-05T02:32:24.040Z,9.59
2022-10-05T02:33:31.168Z,9.63
2022-10-05T02:34:41.700Z,9.67
2022-10-05T02:35:43.269Z,9.71
2022-10-05T02:36:46.211Z,9.71
2022-10-05T02:38:06.258Z,9.73
2022-10-05T02:39:14.943Z,9.76
2022-10-05T02:40:42.688Z,9.79
2022-10-05T02:42:16.075Z,9.82
2022-10-05T02:43:23.459Z,9.79
2022-10-05T02:44:51.009Z,9.68
2022-10-05T02:46:13.887Z,9.69
2022-10-05T02:47:21.806Z,9.68
2022-10-05T02:48:34.269Z,9.62
2022-10-05T02:49:38.828Z,9.61
2022-10-05T02:50:52.674Z,9.61
2022-10-05T02:52:00.016Z,9.61
2022-10-05T02:53:22.320Z,9.62
2022-10-05T02:54:42.606Z,9.69
2022-10-05T02:55:59.470Z,9.70
2022-10-05T02:57:19.388Z,9.66
2022-10-05T02:58:29.111Z,9.62
2022-10-05T03:00:08.652Z,9.57
2022-10-05T03:01:27.903Z,9.55
2022-10-05T03:02:39.698Z,9.61
2022-10-05T03:03:52.300Z,9.64
2022-10-05T03:05:29.259Z,9.55
2022-10-05T03:06:38.656Z,9.36
2022-10-05T03:07:53.468Z,9.37
2022-10-05T03:09:06.418Z,9.39
2022-10-05T03:10:17.338Z,9.42
2022-10-05T03:11:30.235Z,9.44
2022-10-05T03:12:50.090Z,9.40
2022-10-05T03:14:26.144Z,9.41
2022-10-05T03:16:03.366Z,9.40
2022-10-05T03:17:25.448Z,9.25
2022-10-05T03:18:54.036Z,9.16
2022-10-05T03:20:14.349Z,9.15
2022-10-05T03:21:36.413Z,9.20
2022-10-05T03:22:47.022Z,9.25
2022-10-05T03:24:25.890Z,9.30
2022-10-05T03:25:27.379Z,9.34
2022-10-05T03:26:35.280Z,9.31
2022-10-05T03:27:44.898Z,9.33
2022-10-05T03:29:08.666Z,9.34
2022-10-05T03:30:15.953Z,9.37
2022-10-05T03:31:46.398Z,9.44
2022-10-05T03:33:06.522Z,9.49
2022-10-05T03:34:26.360Z,9.47
2022-10-05T03:35:32.705Z,9.53
2022-10-05T03:36:48.769Z,9.58
2022-10-05T03:37:56.250Z,9.66
2022-10-05T03:39:17.953Z,9.69
2022-10-05T03:40:29.628Z,9.69
2022-10-05T03:41:45.933Z,9.69
2022-10-05T03:43:12.397Z,9.61
2022-10-05T03:44:30.410Z,9.55
2022-10-05T03:45:41.311Z,9.50
2022-10-05T03:46:51.516Z,9.39
2022-10-05T03:48:20.323Z,9.45
2022-10-05T03:49:28.092Z,9.47
2022-10-05T03:50:35.047Z,9.43
2022-10-05T03:51:45.414Z,9.34
2022-10-05T03:53:09.275Z,9.39
2022-10-05T03:54:32.426Z,9.37
2022-10-05T03:55:45.432Z,9.24
2022-10-05T03:56:55.769Z,9.27
2022-10-05T03:58:03.220Z,9.30
2022-10-05T03:59:23.002Z,9.32
2022-10-05T04:00:25.625Z,9.36
2022-10-05T04:01:39.025Z,9.34
2022-10-05T04:03:05.195Z,9.36
2022-10-05T04:04:13.677Z,9.28
2022-10-05T04:05:23.613Z,9.27
2022-10-05T04:06:29.972Z,9.26
2022-10-05T04:07:38.816Z,9.31
2022-10-05T04:08:49.378Z,9.35
2022-10-05T04:09:53.107Z,9.35
2022-10-05T04:10:57.905Z,9.40
2022-10-05T04:12:23.902Z,9.43
2022-10-05T04:13:46.114Z,9.49
2022-10-05T04:14:53.774Z,9.52
2022-10-05T04:16:15.865Z,9.53
2022-10-05T04:17:39.420Z,9.55
2022-10-05T04:18:59.166Z,9.54
2022-10-05T04:20:07.135Z,9.39
2022-10-05T04:21:23.642Z,9.31
2022-10-05T04:22:32.005Z,9.31
2022-10-05T04:23:42.980Z,9.35
2022-10-05T04:24:53.245Z,9.39
2022-10-05T04:26:02.358Z,9.43
2022-10-05T04:27:11.208Z,9.40
2022-10-05T04:28:48.806Z,9.24
2022-10-05T04:30:12.441Z,8.85
2022-10-05T04:31:24.063Z,8.45
2022-10-05T04:32:30.929Z,8.22
2022-10-05T04:33:33.391Z,8.20
2022-10-05T04:35:02.537Z,8.11
2022-10-05T04:36:22.069Z,7.88
2022-10-05T04:37:46.246Z,7.76
2022-10-05T04:38:59.560Z,7.68
2022-10-05T04:40:29.745Z,7.56
2022-10-05T04:41:48.498Z,7.47
2022-10-05T04:42:57.985Z,7.37
2022-10-05T04:44:08.962Z,7.31
2022-10-05T04:45:27.439Z,7.27
2022-10-05T04:46:55.729Z,7.16
2022-10-05T04:48:15.256Z,7.08
2022-10-05T04:49:50.935Z,6.91
2022-10-05T04:51:01.386Z,6.87
2022-10-05T04:52:16.584Z,6.93
2022-10-05T04:54:00.060Z,7.02
2022-10-05T04:55:39.096Z,7.13
2022-10-05T04:56:47.580Z,7.19
2022-10-05T04:58:00.646Z,7.28
2022-10-05T04:59:10.155Z,7.24
2022-10-05T05:00:25.535Z,7.22
2022-10-05T05:01:45.117Z,7.22
2022-10-05T05:02:58.747Z,7.30
2022-10-05T05:04:51.860Z,7.42
2022-10-05T05:06:18.525Z,7.50
2022-10-05T05:07:49.375Z,7.62
2022-10-05T05:09:25.303Z,7.72
2022-10-05T05:10:43.904Z,7.79
2022-10-05T05:12:03.874Z,7.75
2022-10-05T05:13:18.333Z,7.76
2022-10-05T05:14:49.478Z,7.81
2022-10-05T05:15:57.034Z,7.82
2022-10-05T05:16:58.555Z,7.84
2022-10-05T05:18:41.120Z,7.84
2022-10-05T05:19:52.353Z,8.01
2022-10-05T05:21:05.810Z,8.14
2022-10-05T05:22:20.799Z,8.28
2022-10-05T05:23:41.073Z,8.33
2022-10-05T05:25:30.313Z,8.49
2022-10-05T05:26:50.887Z,8.57
2022-10-05T05:28:18.147Z,8.61
2022-10-05T05:29:35.950Z,8.80
2022-10-05T05:30:52.900Z,8.98
2022-10-05T05:32:14.120Z,9.12
2022-10-05T05:33:23.318Z,9.25
2022-10-05T05:34:43.278Z,9.40
2022-10-05T05:37:01.830Z,9.63
2022-10-05T05:38:13.733Z,9.74
2022-10-05T05:39:36.789Z,9.88
2022-10-05T05:41:16.389Z,9.83
2022-10-05T05:42:53.069Z,9.96
2022-10-05T05:44:05.256Z,10.06
2022-10-05T05:45:42.994Z,10.08
2022-10-05T05:47:31.241Z,10.13
2022-10-05T05:48:43.074Z,10.31
2022-10-05T05:50:06.336Z,10.27
2022-10-05T05:51:14.724Z,10.41
2022-10-05T05:52:28.909Z,10.66
2022-10-05T05:53:38.093Z,10.87
2022-10-05T05:54:46.217Z,11.09
2022-10-05T05:55:53.112Z,11.22
2022-10-05T05:57:23.305Z,11.36
2022-10-05T05:58:31.675Z,11.53
2022-10-05T05:59:43.786Z,11.58
2022-10-05T06:00:52.142Z,11.59
2022-10-05T06:02:04.895Z,11.69
2022-10-05T06:03:09.556Z,11.85
2022-10-05T06:04:18.967Z,11.95
2022-10-05T06:05:32.647Z,12.05
2022-10-05T06:06:38.227Z,12.13
2022-10-05T06:07:40.394Z,12.25
2022-10-05T06:08:51.225Z,12.23
2022-10-05T06:10:04.221Z,12.25
2022-10-05T06:11:17.020Z,12.26
2022-10-05T06:12:23.608Z,12.23
2022-10-05T06:13:32.726Z,12.26
2022-10-05T06:14:46.972Z,12.49
2022-10-05T06:15:55.886Z,12.69
2022-10-05T06:17:24.122Z,12.90
2022-10-05T06:18:25.867Z,12.93
2022-10-05T06:19:29.285Z,12.97
2022-10-05T06:20:38.287Z,13.19
2022-10-05T06:21:58.107Z,13.44
2022-10-05T06:23:04.383Z,13.59
2022-10-05T06:24:16.679Z,13.59
2022-10-05T06:25:35.222Z,13.70
2022-10-05T06:26:36.721Z,13.87
2022-10-05T06:28:12.563Z,13.97
2022-10-05T06:29:20.582Z,14.08
2022-10-05T06:30:22.539Z,14.15
2022-10-05T06:31:30.496Z,14.17
2022-10-05T06:32:35.030Z,14.00
2022-10-05T06:33:43.960Z,13.97
2022-10-05T06:34:53.378Z,13.84
2022-10-05T06:36:06.955Z,13.77
2022-10-05T06:37:18.854Z,13.88
2022-10-05T06:38:44.718Z,13.94
2022-10-05T06:40:08.062Z,13.43
2022-10-05T06:41:36.155Z,13.24
2022-10-05T06:43:07.610Z,13.15
2022-10-05T06:44:33.792Z,13.38
2022-10-05T06:45:47.910Z,13.49
2022-10-05T06:47:37.244Z,13.23
2022-10-05T06:48:38.785Z,12.69
2022-10-05T06:49:56.323Z,12.55
2022-10-05T06:51:42.392Z,12.47
2022-10-05T06:53:08.680Z,12.78
2022-10-05T06:54:31.351Z,13.04
2022-10-05T06:55:51.125Z,13.42
2022-10-05T06:57:04.580Z,13.49
2022-10-05T06:58:36.649Z,13.75
2022-10-05T06:59:57.610Z,13.60
2022-10-05T07:01:10.962Z,13.30
2022-10-05T07:02:39.890Z,13.50
2022-10-05T07:03:52.065Z,13.45
2022-10-05T07:04:56.298Z,13.53
2022-10-05T07:06:06.265Z,13.58
2022-10-05T07:07:22.976Z,13.66
2022-10-05T07:08:49.266Z,13.83
2022-10-05T07:10:02.268Z,13.93
2022-10-05T07:11:23.074Z,14.25
2022-10-05T07:12:48.792Z,14.41
2022-10-05T07:13:59.246Z,14.51
2022-10-05T07:15:30.377Z,14.55
2022-10-05T07:16:59.083Z,14.63
2022-10-05T07:18:15.713Z,14.63
2022-10-05T07:19:29.263Z,14.85
2022-10-05T07:21:00.100Z,14.78
2022-10-05T07:22:37.181Z,14.51
2022-10-05T07:23:44.679Z,14.80
2022-10-05T07:25:11.160Z,14.54
2022-10-05T07:26:21.946Z,14.39
2022-10-05T07:27:25.651Z,14.20
2022-10-05T07:29:10.736Z,14.22
2022-10-05T07:30:14.957Z,14.19
2022-10-05T07:31:16.483Z,14.54
2022-10-05T07:33:00.314Z,14.86
2022-10-05T07:34:32.567Z,14.89
2022-10-05T07:36:07.957Z,15.11
2022-10-05T07:37:37.908Z,15.12
2022-10-05T07:38:52.493Z,15.41
2022-10-05T07:40:12.113Z,15.82
2022-10-05T07:41:43.573Z,15.75
2022-10-05T07:42:57.590Z,15.67
2022-10-05T07:44:16.088Z,15.66
2022-10-05T07:45:43.345Z,15.85
2022-10-05T07:47:22.334Z,15.96
2022-10-05T07:48:35.452Z,15.88
2022-10-05T07:49:51.673Z,15.57
2022-10-05T07:51:06.642Z,15.48
2022-10-05T07:52:17.174Z,15.40
2022-10-05T07:53:24.809Z,15.54
2022-10-05T07:54:29.702Z,15.72
2022-10-05T07:55:37.294Z,16.00
2022-10-05T07:56:44.952Z,16.15
2022-10-05T07:57:59.594Z,16.29
2022-10-05T07:59:12.336Z,16.34
2022-10-05T08:00:17.840Z,16.29
2022-10-05T08:01:26.875Z,16.19
2022-10-05T08:02:45.728Z,16.34
2022-10-05T08:03:47.196Z,16.49
2022-10-05T08:05:32.118Z,16.60
2022-10-05T08:07:11.336Z,16.46
2022-10-05T08:08:29.766Z,16.46
2022-10-05T08:09:50.518Z,16.43
2022-10-05T08:11:22.010Z,16.48
2022-10-05T08:12:40.146Z,16.45
2022-10-05T08:13:54.710Z,16.67
2022-10-05T08:15:03.284Z,16.58
2022-10-05T08:16:14.434Z,16.63
2022-10-05T08:17:32.816Z,16.87
2022-10-05T08:18:46.336Z,17.08
2022-10-05T08:19:55.956Z,17.05
2022-10-05T08:20:58.563Z,17.10
2022-10-05T08:22:14.050Z,17.13
2022-10-05T08:23:19.855Z,16.63
2022-10-05T08:24:51.610Z,16.30
2022-10-05T08:26:15.987Z,15.85
2022-10-05T08:27:23.528Z,15.87
2022-10-05T08:28:34.209Z,16.16
2022-10-05T08:30:03.013Z,16.36
2022-10-05T08:31:25.197Z,16.35
2022-10-05T08:32:45.333Z,16.36
2022-10-05T08:34:23.032Z,16.58
2022-10-05T08:35:35.468Z,16.97
2022-10-05T08:36:40.051Z,17.19
2022-10-05T08:37:44.154Z,17.22
2022-10-05T08:38:45.732Z,17.31
2022-10-05T08:40:21.508Z,17.39
2022-10-05T08:41:55.959Z,17.49
2022-10-05T08:43:35.596Z,17.52
2022-10-05T08:44:46.066Z,17.55
2022-10-05T08:45:47.661Z,17.58
2022-10-05T08:47:15.904Z,17.60
2022-10-05T08:48:36.132Z,17.56
2022-10-05T08:49:58.694Z,17.42
2022-10-05T08:51:12.853Z,17.35
2022-10-05T08:52:30.715Z,17.42
2022-10-05T08:53:51.063Z,17.53
2022-10-05T08:55:10.943Z,17.53
2022-10-05T08:56:29.474Z,17.55
2022-10-05T08:57:47.655Z,17.59
2022-10-05T08:59:24.526Z,17.63
2022-10-05T09:00:47.620Z,17.67
2022-10-05T09:02:16.351Z,17.64
2022-10-05T09:03:46.022Z,17.59
2022-10-05T09:05:09.219Z,17.54
2022-10-05T09:06:29.456Z,17.44
2022-10-05T09:07:45.348Z,17.40
2022-10-05T09:09:06.260Z,17.22
2022-10-05T09:10:32.708Z,17.07
2022-10-05T09:11:40.779Z,17.10
2022-10-05T09:13:11.537Z,17.20
2022-10-05T09:15:01.340Z,17.35
2022-10-05T09:16:17.923Z,17.31
2022-10-05T09:17:55.862Z,17.28
2022-10-05T09:19:22.849Z,17.35
2022-10-05T09:20:50.856Z,17.37
2022-10-05T09:22:05.087Z,17.33
2022-10-05T09:23:29.661Z,17.23
2022-10-05T09:24:48.769Z,17.17
2022-10-05T09:26:04.121Z,17.08
2022-10-05T09:27:17.480Z,17.13
2022-10-05T09:28:28.049Z,17.09
2022-10-05T09:29:29.566Z,17.10
2022-10-05T09:31:07.959Z,17.08
2022-10-05T09:32:53.338Z,17.15
2022-10-05T09:34:26.197Z,17.17
2022-10-05T09:35:36.936Z,17.17
2022-10-05T09:37:26.459Z,17.23
2022-10-05T09:38:52.263Z,17.31
2022-10-05T09:40:32.892Z,17.26
2022-10-05T09:42:11.618Z,17.41
2022-10-05T09:43:19.145Z,17.36
2022-10-05T09:44:36.377Z,17.39
2022-10-05T09:45:53.893Z,17.48
2022-10-05T09:47:01.408Z,17.55
2022-10-05T09:49:04.448Z,17.68
2022-10-05T09:50:20.754Z,17.65
2022-10-05T09:51:58.837Z,17.64
2022-10-05T09:53:24.802Z,17.74
2022-10-05T09:54:58.532Z,17.75
2022-10-05T09:56:30.504Z,17.70
2022-10-05T09:57:49.381Z,17.71
2022-10-05T09:59:15.497Z,17.70
2022-10-05T10:00:24.179Z,17.73
2022-10-05T10:01:53.580Z,17.70
2022-10-05T10:03:05.303Z,17.74
2022-10-05T10:04:45.182Z,17.74
2022-10-05T10:05:52.326Z,17.84
2022-10-05T10:07:10.763Z,17.79
2022-10-05T10:08:27.283Z,17.84
2022-10-05T10:09:46.204Z,17.91
2022-10-05T10:11:09.122Z,18.02
2022-10-05T10:12:28.800Z,18.07
2022-10-05T10:13:45.152Z,17.57
2022-10-05T10:15:07.646Z,17.63
2022-10-05T10:16:49.646Z,17.78
2022-10-05T10:18:28.723Z,17.77
2022-10-05T10:19:52.261Z,17.99
2022-10-05T10:21:16.852Z,18.03
2022-10-05T10:22:30.358Z,17.98
2022-10-05T10:24:00.187Z,17.90
2022-10-05T10:25:34.745Z,17.85
2022-10-05T10:26:54.993Z,17.94
2022-10-05T10:28:16.282Z,17.98
2022-10-05T10:29:30.159Z,18.06
2022-10-05T10:31:02.164Z,18.10
2022-10-05T10:32:12.795Z,18.02
2022-10-05T10:33:59.428Z,18.05
2022-10-05T10:35:06.902Z,17.92
2022-10-05T10:36:32.629Z,17.87
2022-10-05T10:37:39.584Z,17.96
2022-10-05T10:38:45.139Z,18.13
2022-10-05T10:40:14.517Z,18.10
2022-10-05T10:41:39.188Z,18.07
2022-10-05T10:43:29.509Z,18.13
2022-10-05T10:44:56.439Z,18.27
2022-10-05T10:46:25.320Z,18.40
2022-10-05T10:47:48.064Z,18.29
2022-10-05T10:48:57.451Z,18.33
2022-10-05T10:50:24.277Z,18.32
2022-10-05T10:51:56.640Z,18.22
2022-10-05T10:53:16.989Z,18.06
2022-10-05T10:54:49.837Z,18.17
2022-10-05T10:56:33.376Z,18.42
2022-10-05T10:57:56.738Z,18.46
2022-10-05T10:59:35.677Z,18.55
2022-10-05T11:00:40.268Z,18.59
2022-10-05T11:01:56.776Z,18.49
2022-10-05T11:03:08.525Z,18.53
2022-10-05T11:04:52.866Z,18.54
2022-10-05T11:06:17.293Z,18.57
2022-10-05T11:07:40.747Z,18.68
2022-10-05T11:08:42.230Z,18.72
2022-10-05T11:10:00.827Z,18.68
2022-10-05T11:11:32.957Z,18.65
2022-10-05T11:13:01.682Z,18.71
2022-10-05T11:14:12.127Z,18.66
2022-10-05T11:15:13.765Z,18.66
2022-10-05T11:16:39.439Z,18.48
2022-10-05T11:17:51.140Z,18.42
2022-10-05T11:19:17.427Z,18.36
2022-10-05T11:20:49.823Z,18.50
2022-10-05T11:22:10.823Z,18.68
2022-10-05T11:23:49.713Z,18.90
2022-10-05T11:25:17.576Z,18.99
2022-10-05T11:26:39.989Z,18.89
2022-10-05T11:28:08.292Z,18.83
2022-10-05T11:29:24.112Z,18.75
2022-10-05T11:30:50.486Z,18.72
2022-10-05T11:32:01.631Z,18.76
2022-10-05T11:33:24.946Z,18.87
2022-10-05T11:34:51.641Z,19.05
2022-10-05T11:36:11.344Z,19.14
2022-10-05T11:37:31.867Z,19.13
2022-10-05T11:38:33.380Z,19.22
2022-10-05T11:39:40.759Z,19.27
2022-10-05T11:41:04.236Z,19.24
2022-10-05T11:42:11.721Z,19.28
2022-10-05T11:43:45.140Z,19.28
2022-10-05T11:45:24.740Z,19.26
2022-10-05T11:46:55.642Z,19.29
2022-10-05T11:48:09.430Z,19.23
2022-10-05T11:49:14.023Z,19.14
2022-10-05T11:50:39.624Z,19.07
2022-10-05T11:51:54.811Z,18.97
2022-10-05T11:53:29.568Z,19.06
2022-10-05T11:54:58.618Z,19.12
2022-10-05T11:56:01.733Z,19.09
2022-10-05T11:57:13.605Z,19.12
2022-10-05T11:58:18.056Z,19.18
2022-10-05T11:59:43.265Z,19.24
2022-10-05T12:00:50.154Z,19.33
2022-10-05T12:02:13.437Z,19.45
2022-10-05T12:03:17.592Z,19.50
2022-10-05T12:04:45.469Z,19.50
2022-10-05T12:06:05.289Z,19.50
2022-10-05T12:07:18.943Z,19.59
2022-10-05T12:08:25.409Z,19.62
2022-10-05T12:09:35.339Z,19.69
2022-10-05T12:10:52.582Z,19.69
2022-10-05T12:12:22.078Z,19.71
2022-10-05T12:13:51.239Z,19.70
2022-10-05T12:15:01.829Z,19.57
2022-10-05T12:16:18.202Z,19.52
2022-10-05T12:17:26.182Z,19.56
2022-10-05T12:18:31.136Z,19.55
2022-10-05T12:19:42.561Z,19.50
2022-10-05T12:20:56.725Z,19.70
2022-10-05T12:22:21.919Z,19.69
2022-10-05T12:23:48.444Z,19.71
2022-10-05T12:25:28.624Z,19.70
2022-10-05T12:27:00.935Z,19.73
2022-10-05T12:28:12.369Z,19.73
2022-10-05T12:29:32.221Z,19.76
2022-10-05T12:31:24.723Z,19.76
2022-10-05T12:32:35.275Z,19.65
2022-10-05T12:35:53.699Z,19.58
2022-10-05T12:37:04.728Z,19.58
2022-10-05T12:38:24.380Z,19.59
2022-10-05T12:39:41.985Z,19.48
2022-10-05T12:41:05.429Z,19.58
2022-10-05T12:42:28.285Z,19.70
2022-10-05T12:43:38.524Z,19.77
2022-10-05T12:44:52.117Z,19.76
2022-10-05T12:46:13.185Z,19.73
2022-10-05T12:47:26.934Z,19.65
2022-10-05T12:48:37.654Z,19.58
2022-10-05T12:50:11.439Z,19.50
2022-10-05T12:53:00.110Z,19.64
2022-10-05T12:54:09.313Z,19.70
2022-10-05T12:55:46.037Z,19.72
2022-10-05T12:56:59.169Z,19.55
2022-10-05T13:01:41.727Z,19.63
2022-10-05T13:02:48.335Z,19.63
2022-10-05T13:04:16.004Z,19.56
2022-10-05T13:05:25.350Z,19.58
2022-10-05T13:06:56.060Z,19.69
2022-10-05T13:08:08.007Z,19.83
2022-10-05T13:09:33.940Z,19.88
2022-10-05T13:10:42.595Z,19.86
2022-10-05T13:11:55.033Z,19.91
2022-10-05T13:13:17.567Z,19.88
2022-10-05T13:14:55.457Z,19.92
2022-10-05T13:16:03.185Z,19.91
2022-10-05T13:17:14.897Z,19.90
2022-10-05T13:21:08.130Z,19.95
2022-10-05T13:22:41.101Z,19.96
2022-10-05T13:24:24.106Z,19.99
2022-10-05T13:25:36.716Z,19.95
2022-10-05T13:26:47.310Z,20.00
2022-10-05T13:28:06.936Z,20.02
2022-10-05T13:29:30.278Z,20.04
2022-10-05T13:30:32.353Z,19.99
2022-10-05T13:31:44.693Z,20.02
2022-10-05T13:34:46.031Z,20.05
2022-10-05T13:36:04.970Z,20.06
2022-10-05T13:37:26.986Z,20.02
2022-10-05T13:38:38.928Z,19.95
2022-10-05T13:47:04.690Z,19.98
2022-10-05T13:48:14.020Z,20.04
2022-10-05T13:49:26.513Z,20.05
2022-10-05T13:50:33.447Z,20.08
2022-10-05T13:51:51.689Z,20.08
2022-10-05T13:53:19.666Z,20.09
2022-10-05T13:54:45.813Z,20.11
2022-10-05T13:55:59.934Z,20.10
2022-10-05T13:57:21.213Z,20.10
2022-10-05T13:58:53.285Z,20.17
2022-10-05T14:00:02.504Z,20.16
2022-10-05T14:01:15.961Z,20.18
2022-10-05T14:02:22.916Z,20.20
2022-10-05T14:03:32.256Z,20.23
2022-10-05T14:04:50.865Z,20.26
2022-10-05T14:05:58.130Z,20.26
2022-10-05T14:07:21.412Z,20.27
2022-10-05T14:08:32.251Z,20.25
2022-10-05T14:09:35.061Z,20.22
2022-10-05T14:10:42.927Z,20.17
2022-10-05T14:12:14.786Z,20.15
2022-10-05T14:13:16.243Z,20.15
2022-10-05T14:14:30.433Z,20.17
2022-10-05T14:15:41.972Z,20.18
2022-10-05T14:16:50.988Z,20.19
2022-10-05T14:17:52.772Z,20.14
2022-10-05T14:19:06.500Z,20.11
2022-10-05T14:20:27.694Z,20.15
2022-10-05T14:21:30.754Z,20.17
2022-10-05T14:22:41.619Z,20.18
2022-10-05T14:23:43.256Z,20.18
2022-10-05T14:25:13.688Z,20.22
2022-10-05T14:26:33.250Z,20.26
2022-10-05T14:27:47.971Z,20.21
2022-10-05T14:29:15.263Z,20.18
2022-10-05T14:30:29.124Z,20.10
2022-10-05T14:31:36.028Z,20.08
2022-10-05T14:32:51.409Z,20.08
2022-10-05T14:33:52.957Z,20.01
2022-10-05T14:34:57.171Z,19.96
2022-10-05T14:35:59.762Z,19.98
2022-10-05T14:37:20.939Z,20.01
2022-10-05T14:38:32.664Z,20.10
2022-10-05T14:39:35.447Z,20.11
2022-10-05T14:40:38.330Z,20.15
2022-10-05T14:41:49.023Z,20.17
2022-10-05T14:42:51.438Z,20.17
2022-10-05T14:45:34.245Z,20.20
2022-10-05T14:46:37.130Z,20.12
2022-10-05T14:47:51.964Z,20.13
2022-10-05T14:49:06.551Z,20.07
2022-10-05T14:50:21.302Z,20.04
2022-10-05T14:53:26.253Z,19.90
2022-10-05T14:54:27.769Z,19.84
2022-10-05T14:55:37.326Z,19.84
2022-10-05T14:57:06.710Z,19.82
2022-10-05T14:58:23.737Z,19.85
2022-10-05T14:59:49.182Z,19.84
2022-10-05T15:00:59.728Z,19.81
2022-10-05T15:02:23.366Z,19.79
2022-10-05T15:03:36.776Z,19.72
2022-10-05T15:06:34.674Z,19.64
2022-10-05T15:07:43.879Z,19.66
2022-10-05T15:09:17.272Z,19.70
2022-10-05T15:10:42.223Z,19.60
2022-10-05T15:15:15.265Z,19.65
2022-10-05T15:16:34.339Z,19.64
2022-10-05T15:17:52.524Z,19.69
2022-10-05T15:19:16.726Z,19.69
2022-10-05T15:20:26.380Z,19.65
2022-10-05T15:21:57.262Z,19.66
2022-10-05T15:23:11.271Z,19.63
2022-10-05T15:24:17.477Z,19.59
2022-10-05T15:28:15.510Z,19.50
2022-10-05T15:29:29.583Z,19.50
2022-10-05T15:30:36.733Z,19.47
2022-10-05T15:31:46.663Z,19.44
2022-10-05T15:33:11.054Z,19.41
2022-10-05T15:36:06.400Z,19.35
2022-10-05T15:37:10.787Z,19.32
2022-10-05T15:38:29.325Z,19.32
2022-10-05T15:39:51.365Z,19.27
2022-10-05T15:40:59.149Z,19.22
2022-10-05T15:42:25.324Z,19.25
2022-10-05T15:43:42.404Z,19.24
2022-10-05T15:45:13.901Z,19.19
2022-10-05T15:46:35.582Z,19.16
2022-10-05T15:47:59.412Z,19.06
2022-10-05T15:49:19.976Z,19.06
2022-10-05T15:50:29.716Z,19.00
2022-10-05T15:51:50.777Z,18.96
2022-10-05T15:53:13.947Z,18.86
2022-10-05T15:54:43.340Z,18.76
2022-10-05T15:55:52.396Z,18.74
2022-10-05T15:57:07.299Z,18.73
2022-10-05T15:58:38.736Z,18.72
2022-10-05T15:59:48.866Z,18.63
2022-10-05T16:01:16.125Z,18.58
2022-10-05T16:02:25.549Z,18.45
2022-10-05T16:03:45.762Z,18.30
2022-10-05T16:05:03.808Z,18.14
2022-10-05T16:06:35.698Z,18.08
2022-10-05T16:08:04.328Z,18.07
2022-10-05T16:09:26.913Z,17.96
2022-10-05T16:10:33.917Z,17.95
2022-10-05T16:11:44.008Z,17.94
2022-10-05T16:13:00.702Z,17.88
2022-10-05T16:14:15.431Z,17.83
2022-10-05T16:15:35.760Z,17.78
2022-10-05T16:17:09.827Z,17.75
2022-10-05T16:18:14.070Z,17.75
2022-10-05T16:19:30.008Z,17.69
2022-10-05T16:20:43.681Z,17.67
2022-10-05T16:22:04.541Z,17.63
2022-10-05T16:23:30.192Z,17.60
2022-10-05T16:24:59.513Z,17.54
2022-10-05T16:26:22.181Z,17.45
2022-10-05T16:27:32.813Z,17.45
2022-10-05T16:28:43.090Z,17.42
2022-10-05T16:30:03.698Z,17.39
2022-10-05T16:31:06.130Z,17.35
2022-10-05T16:32:15.904Z,17.32
2022-10-05T16:33:54.441Z,17.31
2022-10-05T16:35:39.480Z,17.27
2022-10-05T16:36:59.118Z,17.30
2022-10-05T16:38:09.987Z,17.33
2022-10-05T16:39:11.448Z,17.38
2022-10-05T16:40:34.818Z,17.43
2022-10-05T16:41:50.130Z,17.47
2022-10-05T16:43:03.705Z,17.51
2022-10-05T16:44:30.125Z,17.43
2022-10-05T16:46:02.377Z,17.37
2022-10-05T16:47:28.316Z,17.24
2022-10-05T16:49:13.899Z,17.19
2022-10-05T16:50:38.295Z,17.13
2022-10-05T16:52:00.299Z,16.92
2022-10-05T16:53:17.425Z,16.85
2022-10-05T16:54:27.389Z,16.79
2022-10-05T16:55:37.609Z,16.69
2022-10-05T16:56:44.212Z,16.63
2022-10-05T16:57:52.463Z,16.56
2022-10-05T16:59:25.001Z,16.39
2022-10-05T17:00:52.009Z,16.33
2022-10-05T17:02:27.449Z,16.11
2022-10-05T17:03:52.982Z,15.95
2022-10-05T17:05:16.386Z,15.89
2022-10-05T17:06:36.963Z,15.88
2022-10-05T17:08:01.634Z,15.99
2022-10-05T17:09:37.531Z,16.00
2022-10-05T17:10:54.922Z,16.00
2022-10-05T17:12:11.507Z,16.00
2022-10-05T17:13:22.222Z,16.05
2022-10-05T17:14:42.866Z,16.18
2022-10-05T17:15:55.281Z,16.32
2022-10-05T17:17:18.666Z,16.26
2022-10-05T17:19:10.485Z,16.10
2022-10-05T17:20:15.649Z,16.08
2022-10-05T17:21:24.019Z,16.06
2022-10-05T17:22:32.064Z,15.95